Phoenix, AZ (85060)

9:46 PM MST on September 23, 2014 (GMT -0700)
Dateland Palms | Change Station
CLOSE
Current Station
Personal Weather Station
Location: Phoenix, AZ
Elevation: 1247 ft
Nearby Weather Stations

Elev 1247 ft 33.50 °N, 111.99 °W | Updated 11 seconds ago

Clear
Clear
81.7 °F
Feels Like 81 °F
N
0.0
Wind Variable Wind from WSW
Gusts 0.0 mph

Today
High -- | Low -- °F
--% Chance of Precip.
Yesterday
High -- | Low -- °F
Precip. -- in
6:16 AM 6:23 PM
Waning Crescent, 0% visible
Pressure 29.79 in
Visibility 10.0 miles
Clouds Clear
Heat Index 81 °F
Dew Point 56 °F
Humidity 41%
Rainfall 0.00 in
Snow Depth 1 in , 0 in , 1 in
UV 0 out of 12
Pollen 6.70 out of 12
PM2.5 Good
Flu Activity Not available.
METAR KPHX 240351Z 26003KT 10SM CLR 33/09 A2985 RMK AO2 SLP086 T03330094

More Conditions Fewer Conditions

Pressure 29.79 in
Visibility 10.0 miles
Clouds Clear
Heat Index 81 °F
Dew Point 56 °F
Humidity 41%
Rainfall 0.00 in
Snow Depth 1 in , 0 in , 1 in
UV 0 out of 12
Pollen 6.70 out of 12
PM2.5 Good
Flu Activity Not available.
METAR KPHX 240351Z 26003KT 10SM CLR 33/09 A2985 RMK AO2 SLP086 T03330094

More Conditions Fewer Conditions

10-Day Weather Forecast

Almanac

Astronomy

Sep. 23, 2014 Rise Set
Actual Time 6:16 AM MST 6:23 PM MST
Civil Twilight 5:51 AM MST 6:47 PM MST
Nautical Twilight 5:23 AM MST 7:16 PM MST
Astronomical Twilight 4:53 AM MST 7:46 PM MST
Moon 5:44 AM MST (9/23) 6:04 PM MST (9/23)
Length of Visible Light 12h 55m
Length of Day
12h 06m
Tomorrow will be 2m 4s shorter.
Waning Crescent, 0% of the Moon is Illuminated
Sep 24
Waning Crescent
Sep 24
New
Oct 1
First Quarter
Oct 8
Full
Oct 15
Last Quarter

Yesterday's Extremes

State Highs State Lows

Community

WunderPhotos

Upload Photos

1,755,891 photos uploaded!

WunderBlogs® & News

Nearby

Air Quality

  Air Quality AQ Index Pollutant
Yesterday Moderate
OZONE
Yesterday Good
PM10
Current Good
PM2.5
Tuesday Moderate
OZONE
Tuesday Good
PM10
Tuesday Good
CO
Wednesday Moderate
OZONE
Wednesday Good
PM10
Wednesday Good
CO
Thursday Good
PM2.5
Thursday Good
OZONE
Thursday Good
CO

Snow Depth

Station Depth Elevation
Beaver Head 1 in 7990 ft
White Horse Lake 0 in 7180 ft
Workman Creek 1 in 6900 ft
Promontory 0 in 7930 ft
Maverick Fork 0 in 9200 ft

Earthquake Activity

City Distance Mag. Time & Date
No recent earthquake activity has been reported nearby.
Minimum magnitude displayed is 2.5.

Coastal Water Temperatures

Place Temperature
No Stations Reporting

Nearby Weather Stations